createdAt,value
2024-02-19T00:01:12.491Z,0.70
2024-02-19T00:02:45.295Z,0.60
2024-02-19T00:04:18.855Z,0.60
2024-02-19T00:05:52.538Z,0.60
2024-02-19T00:07:25.676Z,0.60
2024-02-19T00:08:58.485Z,0.60
2024-02-19T00:10:31.277Z,0.70
2024-02-19T00:12:04.294Z,0.60
2024-02-19T00:13:38.942Z,0.60
2024-02-19T00:15:11.721Z,0.60
2024-02-19T00:16:44.428Z,0.60
2024-02-19T00:18:17.165Z,0.60
2024-02-19T00:19:49.991Z,0.60
2024-02-19T00:21:23.245Z,0.60
2024-02-19T00:22:55.901Z,0.60
2024-02-19T00:24:28.437Z,0.60
2024-02-19T00:26:02.271Z,0.60
2024-02-19T00:27:35.148Z,0.60
2024-02-19T00:29:08.169Z,0.67
2024-02-19T00:30:40.879Z,0.70
2024-02-19T00:32:13.843Z,0.60
2024-02-19T00:33:47.052Z,0.60
2024-02-19T00:35:22.515Z,0.60
2024-02-19T00:36:56.005Z,0.60
2024-02-19T00:38:28.983Z,0.60
2024-02-19T00:40:01.697Z,0.70
2024-02-19T00:41:37.257Z,0.60
2024-02-19T00:43:10.259Z,0.60
2024-02-19T00:44:43.129Z,0.60
2024-02-19T00:46:15.734Z,0.60
2024-02-19T00:47:48.472Z,0.60
2024-02-19T00:49:21.273Z,0.60
2024-02-19T00:50:54.039Z,0.60
2024-02-19T00:52:26.786Z,0.60
2024-02-19T00:53:59.522Z,0.60
2024-02-19T00:55:32.345Z,0.60
2024-02-19T00:57:05.311Z,0.60
2024-02-19T00:58:37.955Z,0.60
2024-02-19T01:00:10.897Z,0.60
2024-02-19T01:01:43.704Z,0.70
2024-02-19T01:03:18.442Z,0.60
2024-02-19T01:04:54.775Z,0.60
2024-02-19T01:06:27.725Z,0.60
2024-02-19T01:08:00.402Z,0.60
2024-02-19T01:09:33.054Z,0.60
2024-02-19T01:11:06.184Z,0.60
2024-02-19T01:12:42.116Z,0.60
2024-02-19T01:14:14.796Z,0.60
2024-02-19T01:15:47.541Z,0.60
2024-02-19T01:17:20.305Z,0.60
2024-02-19T01:18:53.515Z,0.60
2024-02-19T01:20:26.283Z,0.60
2024-02-19T01:21:59.183Z,0.60
2024-02-19T01:23:32.092Z,0.60
2024-02-19T01:25:05.182Z,0.60
2024-02-19T01:26:37.864Z,0.70
2024-02-19T01:28:10.874Z,0.70
2024-02-19T01:29:43.616Z,0.60
2024-02-19T01:31:17.715Z,0.60
2024-02-19T01:32:50.463Z,0.70
2024-02-19T01:34:23.397Z,0.60
2024-02-19T01:35:56.902Z,0.60
2024-02-19T01:37:29.688Z,0.60
2024-02-19T01:39:03.031Z,0.60
2024-02-19T01:40:35.687Z,0.70
2024-02-19T01:42:08.470Z,0.60
2024-02-19T01:43:41.168Z,0.60
2024-02-19T01:45:32.349Z,0.60
2024-02-19T01:47:05.296Z,0.60
2024-02-19T01:48:39.419Z,0.60
2024-02-19T01:50:12.236Z,0.60
2024-02-19T01:51:45.576Z,0.60
2024-02-19T01:53:18.690Z,0.70
2024-02-19T01:54:51.503Z,0.60
2024-02-19T01:56:24.833Z,0.60
2024-02-19T01:57:59.157Z,0.60
2024-02-19T01:59:33.336Z,0.60
2024-02-19T02:01:07.942Z,0.60
2024-02-19T02:02:41.227Z,0.60
2024-02-19T02:04:16.234Z,0.60
2024-02-19T02:05:49.943Z,0.60
2024-02-19T02:07:22.910Z,0.60
2024-02-19T02:08:56.789Z,0.60
2024-02-19T02:10:29.448Z,0.60
2024-02-19T02:12:02.328Z,0.60
2024-02-19T02:13:35.747Z,0.60
2024-02-19T02:15:09.364Z,0.60
2024-02-19T02:16:42.457Z,0.60
2024-02-19T02:18:17.294Z,0.60
2024-02-19T02:19:50.102Z,0.60
2024-02-19T02:21:23.348Z,0.60
2024-02-19T02:22:58.417Z,0.60
2024-02-19T02:24:32.434Z,0.70
2024-02-19T02:26:05.494Z,0.60
2024-02-19T02:27:39.603Z,0.60
2024-02-19T02:29:12.846Z,0.60
2024-02-19T02:30:45.592Z,0.60
2024-02-19T02:32:18.156Z,0.60
2024-02-19T02:33:50.937Z,0.67
2024-02-19T02:35:25.205Z,0.60
2024-02-19T02:36:58.260Z,0.60
2024-02-19T02:38:30.931Z,0.60
2024-02-19T02:40:03.962Z,0.60
2024-02-19T02:41:36.618Z,0.60
2024-02-19T02:43:09.526Z,0.60
2024-02-19T02:44:42.180Z,0.60
2024-02-19T02:46:15.105Z,0.70
2024-02-19T02:47:47.757Z,0.60
2024-02-19T02:49:20.573Z,0.60
2024-02-19T02:50:53.269Z,0.60
2024-02-19T02:52:27.123Z,0.60
2024-02-19T02:53:59.838Z,0.60
2024-02-19T02:55:32.638Z,0.60
2024-02-19T02:57:05.365Z,0.60
2024-02-19T02:58:38.064Z,0.60
2024-02-19T03:00:11.712Z,0.60
2024-02-19T03:01:44.557Z,0.60
2024-02-19T03:03:17.497Z,0.60
2024-02-19T03:04:50.244Z,0.60
2024-02-19T03:06:23.163Z,0.60
2024-02-19T03:07:55.934Z,0.60
2024-02-19T03:09:28.599Z,0.60
2024-02-19T03:11:01.374Z,0.60
2024-02-19T03:12:34.060Z,0.57
2024-02-19T03:14:08.182Z,0.60
2024-02-19T03:15:40.998Z,0.60
2024-02-19T03:17:13.795Z,0.60
2024-02-19T03:18:47.589Z,0.60
2024-02-19T03:20:20.626Z,0.60
2024-02-19T03:21:53.398Z,0.60
2024-02-19T03:23:26.705Z,0.60
2024-02-19T03:24:59.442Z,0.70
2024-02-19T03:26:38.067Z,0.60
2024-02-19T03:28:14.126Z,0.60
2024-02-19T03:29:46.827Z,0.60
2024-02-19T03:31:22.601Z,0.60
2024-02-19T03:32:55.421Z,0.60
2024-02-19T03:34:28.229Z,0.60
2024-02-19T03:36:01.186Z,0.60
2024-02-19T03:37:33.804Z,0.60
2024-02-19T03:39:06.590Z,0.60
2024-02-19T03:40:39.446Z,0.60
2024-02-19T03:42:12.534Z,0.60
2024-02-19T03:43:46.178Z,0.60
2024-02-19T03:45:20.478Z,0.60
2024-02-19T03:46:53.535Z,0.60
2024-02-19T03:48:26.353Z,0.60
2024-02-19T03:49:59.241Z,0.60
2024-02-19T03:51:31.981Z,0.60
2024-02-19T03:53:04.865Z,0.60
2024-02-19T03:54:37.980Z,0.60
2024-02-19T03:56:10.760Z,0.60
2024-02-19T03:57:43.753Z,0.60
2024-02-19T03:59:18.564Z,0.60
2024-02-19T04:00:51.369Z,0.60
2024-02-19T04:02:24.810Z,0.60
2024-02-19T04:03:58.656Z,0.60
2024-02-19T04:05:31.337Z,0.53
2024-02-19T04:07:04.204Z,0.60
2024-02-19T04:08:36.907Z,0.60
2024-02-19T04:10:09.853Z,0.60
2024-02-19T04:11:42.699Z,0.60
2024-02-19T04:13:15.850Z,0.60
2024-02-19T04:14:48.674Z,0.60
2024-02-19T04:16:21.520Z,0.53
2024-02-19T04:17:54.646Z,0.60
2024-02-19T04:19:29.585Z,0.60
2024-02-19T04:21:02.609Z,0.60
2024-02-19T04:22:35.694Z,0.60
2024-02-19T04:24:08.666Z,0.60
2024-02-19T04:25:41.387Z,0.60
2024-02-19T04:27:16.049Z,0.50
2024-02-19T04:28:48.701Z,0.60
2024-02-19T04:30:21.429Z,0.60
2024-02-19T04:31:54.918Z,0.50
2024-02-19T04:33:27.625Z,0.60
2024-02-19T04:35:00.576Z,0.50
2024-02-19T04:36:33.936Z,0.50
2024-02-19T04:38:06.934Z,0.60
2024-02-19T04:39:39.648Z,0.50
2024-02-19T04:41:12.581Z,0.50
2024-02-19T04:42:45.759Z,0.50
2024-02-19T04:44:18.840Z,0.50
2024-02-19T04:45:52.289Z,0.50
2024-02-19T04:47:25.505Z,0.50
2024-02-19T04:48:58.318Z,0.50
2024-02-19T04:50:31.317Z,0.50
2024-02-19T04:52:06.328Z,0.43
2024-02-19T04:53:39.092Z,0.50
2024-02-19T04:56:44.621Z,0.50
2024-02-19T04:59:50.603Z,0.40
2024-02-19T05:01:23.668Z,0.50
2024-02-19T05:02:56.458Z,0.50
2024-02-19T05:04:29.350Z,0.40
2024-02-19T05:06:02.137Z,0.40
2024-02-19T05:07:35.969Z,0.40
2024-02-19T05:09:09.356Z,0.40
2024-02-19T05:10:42.271Z,0.40
2024-02-19T05:12:15.073Z,0.50
2024-02-19T05:13:47.853Z,0.40
2024-02-19T05:15:20.713Z,0.50
2024-02-19T05:16:53.468Z,0.40
2024-02-19T05:18:26.447Z,0.50
2024-02-19T05:19:59.316Z,0.50
2024-02-19T05:21:34.689Z,0.47
2024-02-19T05:23:07.441Z,0.40
2024-02-19T05:26:12.870Z,0.50
2024-02-19T05:29:18.622Z,0.50
2024-02-19T05:30:51.541Z,0.40
2024-02-19T05:32:27.479Z,0.50
2024-02-19T05:34:00.708Z,0.50
2024-02-19T05:35:33.751Z,0.50
2024-02-19T05:37:06.725Z,0.50
2024-02-19T05:38:40.213Z,0.40
2024-02-19T05:40:13.112Z,0.50
2024-02-19T05:41:46.021Z,0.50
2024-02-19T05:43:19.017Z,0.50
2024-02-19T05:44:51.840Z,0.50
2024-02-19T05:46:24.927Z,0.45
2024-02-19T05:47:58.168Z,0.40
2024-02-19T05:49:31.098Z,0.50
2024-02-19T05:51:05.171Z,0.50
2024-02-19T05:52:38.199Z,0.50
2024-02-19T05:54:10.977Z,0.40
2024-02-19T05:55:46.748Z,0.50
2024-02-19T05:57:19.634Z,0.40
2024-02-19T05:58:52.762Z,0.50
2024-02-19T06:00:25.618Z,0.40
2024-02-19T06:01:59.039Z,0.50
2024-02-19T06:03:33.874Z,0.50
2024-02-19T06:05:07.705Z,0.50
2024-02-19T06:06:41.000Z,0.40
2024-02-19T06:08:14.220Z,0.40
2024-02-19T06:09:47.009Z,0.40
2024-02-19T06:11:22.372Z,0.40
2024-02-19T06:12:55.329Z,0.50
2024-02-19T06:14:28.353Z,0.40
2024-02-19T06:16:01.431Z,0.40
2024-02-19T06:17:34.712Z,0.40
2024-02-19T06:19:10.371Z,0.40
2024-02-19T06:20:43.369Z,0.40
2024-02-19T06:23:48.951Z,0.50
2024-02-19T06:25:22.310Z,0.40
2024-02-19T06:26:55.140Z,0.40
2024-02-19T06:28:29.196Z,0.40
2024-02-19T06:30:07.931Z,0.40
2024-02-19T06:31:43.981Z,0.40
2024-02-19T06:33:18.672Z,0.40
2024-02-19T06:34:51.958Z,0.40
2024-02-19T06:36:24.879Z,0.40
2024-02-19T06:37:57.837Z,0.40
2024-02-19T06:39:31.125Z,0.40
2024-02-19T06:41:04.269Z,0.40
2024-02-19T06:42:37.001Z,0.40
2024-02-19T06:44:09.802Z,0.40
2024-02-19T06:47:15.095Z,0.40
2024-02-19T06:48:50.603Z,0.40
2024-02-19T06:50:24.004Z,0.40
2024-02-19T06:51:57.669Z,0.40
2024-02-19T06:53:30.973Z,0.40
2024-02-19T06:55:03.863Z,0.50
2024-02-19T06:56:36.837Z,0.50
2024-02-19T06:58:09.727Z,0.47
2024-02-19T06:59:43.474Z,0.47
2024-02-19T07:01:16.999Z,0.50
2024-02-19T07:02:50.082Z,0.50
2024-02-19T07:04:23.427Z,0.50
2024-02-19T07:05:56.562Z,0.40
2024-02-19T07:07:30.012Z,0.47
2024-02-19T07:09:02.939Z,0.40
2024-02-19T07:10:35.986Z,0.50
2024-02-19T07:12:09.187Z,0.43
2024-02-19T07:13:42.238Z,0.50
2024-02-19T07:15:15.177Z,0.50
2024-02-19T07:16:47.970Z,0.50
2024-02-19T07:19:54.203Z,0.50
2024-02-19T07:21:27.105Z,0.50
2024-02-19T07:23:01.735Z,0.50
2024-02-19T07:24:34.569Z,0.50
2024-02-19T07:26:07.434Z,0.50
2024-02-19T07:27:40.241Z,0.50
2024-02-19T07:29:13.213Z,0.40
2024-02-19T07:30:46.280Z,0.50
2024-02-19T07:32:19.796Z,0.50
2024-02-19T07:33:52.769Z,0.50
2024-02-19T07:35:25.638Z,0.50
2024-02-19T07:36:58.462Z,0.50
2024-02-19T07:38:31.581Z,0.50
2024-02-19T07:40:04.883Z,0.50
2024-02-19T07:41:37.969Z,0.50
2024-02-19T07:43:11.133Z,0.50
2024-02-19T07:44:45.578Z,0.50
2024-02-19T07:46:20.246Z,0.40
2024-02-19T07:47:53.342Z,0.50
2024-02-19T07:49:26.547Z,0.50
2024-02-19T07:50:59.316Z,0.50
2024-02-19T07:54:05.201Z,0.50
2024-02-19T07:55:39.420Z,0.47
2024-02-19T07:57:12.430Z,0.43
2024-02-19T07:58:45.824Z,0.50
2024-02-19T08:00:19.991Z,0.50
2024-02-19T08:01:52.906Z,0.50
2024-02-19T08:03:25.849Z,0.50
2024-02-19T08:04:59.009Z,0.50
2024-02-19T08:06:31.876Z,0.40
2024-02-19T08:08:05.050Z,0.50
2024-02-19T08:09:38.141Z,0.50
2024-02-19T08:11:11.239Z,0.50
2024-02-19T08:12:46.115Z,0.50
2024-02-19T08:14:20.824Z,0.50
2024-02-19T08:15:54.029Z,0.40
2024-02-19T08:17:26.809Z,0.50
2024-02-19T08:20:33.480Z,0.50
2024-02-19T08:22:06.438Z,0.40
2024-02-19T08:23:39.555Z,0.50
2024-02-19T08:25:12.498Z,0.40
2024-02-19T08:26:45.514Z,0.50
2024-02-19T08:28:18.524Z,0.50
2024-02-19T08:29:51.215Z,0.50
2024-02-19T08:32:58.461Z,0.50
2024-02-19T08:34:31.611Z,0.50
2024-02-19T08:36:05.942Z,0.50
2024-02-19T08:37:39.664Z,0.50
2024-02-19T08:39:12.595Z,0.50
2024-02-19T08:40:45.423Z,0.50
2024-02-19T08:42:18.479Z,0.50
2024-02-19T08:43:51.643Z,0.50
2024-02-19T08:45:26.401Z,0.50
2024-02-19T08:47:08.856Z,0.50
2024-02-19T08:48:42.223Z,0.50
2024-02-19T08:50:15.610Z,0.50
2024-02-19T08:51:48.650Z,0.50
2024-02-19T08:54:54.363Z,0.47
2024-02-19T08:56:27.301Z,0.50
2024-02-19T08:58:00.222Z,0.50
2024-02-19T08:59:33.039Z,0.50
2024-02-19T09:02:44.645Z,0.45
2024-02-19T09:04:17.468Z,0.40
2024-02-19T09:05:50.380Z,0.43
2024-02-19T09:07:23.192Z,0.47
2024-02-19T09:08:56.213Z,0.40
2024-02-19T09:10:29.176Z,0.50
2024-02-19T09:12:01.873Z,0.47
2024-02-19T09:13:36.338Z,0.50
2024-02-19T09:15:09.372Z,0.50
2024-02-19T09:16:42.458Z,0.50
2024-02-19T09:18:15.427Z,0.40
2024-02-19T09:19:48.487Z,0.40
2024-02-19T09:21:21.222Z,0.50
2024-02-19T09:22:54.392Z,0.50
2024-02-19T09:24:27.396Z,0.50
2024-02-19T09:26:00.415Z,0.50
2024-02-19T09:27:33.511Z,0.43
2024-02-19T09:30:39.071Z,0.40
2024-02-19T09:32:11.827Z,0.45
2024-02-19T09:33:46.394Z,0.50
2024-02-19T09:35:20.126Z,0.50
2024-02-19T09:36:53.281Z,0.40
2024-02-19T09:38:26.299Z,0.50
2024-02-19T09:40:01.959Z,0.50
2024-02-19T09:41:36.629Z,0.50
2024-02-19T09:46:24.389Z,0.50
2024-02-19T09:48:04.377Z,0.40
2024-02-19T09:49:37.742Z,0.40
2024-02-19T09:51:21.920Z,0.50
2024-02-19T09:53:13.118Z,0.40
2024-02-19T09:54:47.293Z,0.40
2024-02-19T09:56:24.498Z,0.50
2024-02-19T09:57:58.061Z,0.40
2024-02-19T09:59:32.835Z,0.50
2024-02-19T10:01:06.106Z,0.50
2024-02-19T10:02:39.979Z,0.50
2024-02-19T10:04:15.843Z,0.50
2024-02-19T10:05:50.906Z,0.50
2024-02-19T10:07:24.294Z,0.50
2024-02-19T10:08:58.872Z,0.45
2024-02-19T10:10:34.275Z,0.50
2024-02-19T10:12:07.718Z,0.50
2024-02-19T10:13:43.043Z,0.50
2024-02-19T10:15:16.438Z,0.45
2024-02-19T10:16:52.756Z,0.50
2024-02-19T10:18:25.798Z,0.50
2024-02-19T10:20:03.295Z,0.50
2024-02-19T10:21:36.501Z,0.47
2024-02-19T10:23:09.303Z,0.47
2024-02-19T10:24:43.258Z,0.50
2024-02-19T10:26:16.038Z,0.50
2024-02-19T10:27:49.339Z,0.40
2024-02-19T10:29:22.954Z,0.40
2024-02-19T10:30:55.827Z,0.50
2024-02-19T10:32:28.880Z,0.50
2024-02-19T10:34:02.256Z,0.50
2024-02-19T10:35:35.253Z,0.40
2024-02-19T10:37:08.405Z,0.40
2024-02-19T10:38:41.187Z,0.40
2024-02-19T10:41:48.760Z,0.40
2024-02-19T10:43:21.837Z,0.50
2024-02-19T10:44:55.364Z,0.50
2024-02-19T10:46:28.697Z,0.43
2024-02-19T10:48:02.034Z,0.47
2024-02-19T10:49:34.916Z,0.50
2024-02-19T10:51:07.996Z,0.40
2024-02-19T10:52:41.502Z,0.40
2024-02-19T10:54:19.450Z,0.45
2024-02-19T10:55:55.919Z,0.50
2024-02-19T10:57:34.150Z,0.50
2024-02-19T10:59:10.679Z,0.40
2024-02-19T11:00:45.334Z,0.50
2024-02-19T11:02:21.826Z,0.50
2024-02-19T11:03:54.777Z,0.50
2024-02-19T11:05:29.403Z,0.50
2024-02-19T11:07:04.735Z,0.50
2024-02-19T11:08:38.401Z,0.50
2024-02-19T11:10:11.394Z,0.50
2024-02-19T11:11:48.526Z,0.43
2024-02-19T11:13:26.880Z,0.50
2024-02-19T11:15:00.100Z,0.40
2024-02-19T11:16:35.491Z,0.50
2024-02-19T11:18:17.749Z,0.50
2024-02-19T11:19:52.752Z,0.50
2024-02-19T11:21:25.768Z,0.40
2024-02-19T11:23:00.454Z,0.40
2024-02-19T11:24:33.107Z,0.50
2024-02-19T11:27:39.009Z,0.50
2024-02-19T11:29:25.297Z,0.50
2024-02-19T11:31:05.416Z,0.50
2024-02-19T11:32:40.346Z,0.40
2024-02-19T11:34:31.674Z,0.40
2024-02-19T11:36:04.803Z,0.50
2024-02-19T11:37:37.832Z,0.50
2024-02-19T11:39:10.822Z,0.50
2024-02-19T11:40:43.958Z,0.50
2024-02-19T11:42:17.352Z,0.50
2024-02-19T11:43:50.630Z,0.50
2024-02-19T11:45:24.504Z,0.50
2024-02-19T11:46:59.155Z,0.40
2024-02-19T11:48:32.333Z,0.50
2024-02-19T11:50:09.537Z,0.45
2024-02-19T11:51:43.600Z,0.50
2024-02-19T11:53:17.513Z,0.40
2024-02-19T11:54:55.645Z,0.50
2024-02-19T11:56:28.619Z,0.43
2024-02-19T11:58:07.136Z,0.50
2024-02-19T11:59:40.013Z,0.50
2024-02-19T12:01:14.499Z,0.40
2024-02-19T12:02:49.520Z,0.50
2024-02-19T12:04:22.368Z,0.50
2024-02-19T12:05:59.063Z,0.50
2024-02-19T12:07:32.580Z,0.50
2024-02-19T12:09:09.868Z,0.50
2024-02-19T12:10:42.838Z,0.50
2024-02-19T12:12:19.058Z,0.50
2024-02-19T12:13:53.052Z,0.50
2024-02-19T12:15:26.017Z,0.50
2024-02-19T12:16:59.750Z,0.50
2024-02-19T12:18:32.891Z,0.50
2024-02-19T12:20:07.626Z,0.50
2024-02-19T12:21:43.723Z,0.50
2024-02-19T12:23:16.628Z,0.50
2024-02-19T12:24:52.497Z,0.50
2024-02-19T12:26:25.417Z,0.50
2024-02-19T12:27:58.289Z,0.50
2024-02-19T12:29:31.006Z,0.50
2024-02-19T12:32:37.276Z,0.50
2024-02-19T12:34:10.272Z,0.40
2024-02-19T12:35:44.040Z,0.50
2024-02-19T12:37:17.201Z,0.40
2024-02-19T12:38:52.716Z,0.50
2024-02-19T12:40:25.657Z,0.50
2024-02-19T12:41:59.120Z,0.50
2024-02-19T12:43:32.469Z,0.50
2024-02-19T12:45:05.853Z,0.50
2024-02-19T12:46:38.518Z,0.50
2024-02-19T12:48:11.409Z,0.40
2024-02-19T12:49:44.511Z,0.50
2024-02-19T12:51:17.548Z,0.50
2024-02-19T12:52:50.324Z,0.50
2024-02-19T12:54:23.100Z,0.50
2024-02-19T12:55:56.169Z,0.50
2024-02-19T12:57:28.933Z,0.50
2024-02-19T12:59:01.638Z,0.50
2024-02-19T13:00:34.499Z,0.50
2024-02-19T13:02:08.453Z,0.50
2024-02-19T13:03:41.500Z,0.50
2024-02-19T13:05:14.609Z,0.50
2024-02-19T13:06:47.765Z,0.50
2024-02-19T13:08:20.636Z,0.50
2024-02-19T13:09:54.499Z,0.50
2024-02-19T13:11:27.723Z,0.50
2024-02-19T13:13:00.470Z,0.50
2024-02-19T13:14:39.995Z,0.50
2024-02-19T13:16:16.203Z,0.50
2024-02-19T13:17:49.702Z,0.50
2024-02-19T13:19:22.832Z,0.50
2024-02-19T13:20:57.768Z,0.50
2024-02-19T13:22:30.955Z,0.50
2024-02-19T13:24:03.706Z,0.50
2024-02-19T13:25:36.585Z,0.50
2024-02-19T13:27:10.000Z,0.50
2024-02-19T13:28:42.926Z,0.50
2024-02-19T13:30:18.163Z,0.50
2024-02-19T13:31:51.075Z,0.50
2024-02-19T13:33:24.314Z,0.50
2024-02-19T13:34:57.210Z,0.50
2024-02-19T13:36:30.334Z,0.50
2024-02-19T13:38:05.032Z,0.50
2024-02-19T13:39:37.748Z,0.50
2024-02-19T13:41:11.051Z,0.50
2024-02-19T13:42:45.186Z,0.50
2024-02-19T13:44:18.084Z,0.50
2024-02-19T13:45:58.224Z,0.50
2024-02-19T13:47:31.487Z,0.50
2024-02-19T13:49:06.791Z,0.50
2024-02-19T13:50:39.815Z,0.50
2024-02-19T13:52:14.222Z,0.50
2024-02-19T13:53:46.952Z,0.50
2024-02-19T13:55:19.877Z,0.50
2024-02-19T13:56:54.760Z,0.50
2024-02-19T13:58:28.693Z,0.50
2024-02-19T14:00:01.438Z,0.50
2024-02-19T14:01:39.426Z,0.50
2024-02-19T14:03:14.666Z,0.50
2024-02-19T14:04:47.352Z,0.50
2024-02-19T14:06:20.294Z,0.50
2024-02-19T14:07:54.122Z,0.50
2024-02-19T14:09:26.965Z,0.50
2024-02-19T14:11:00.930Z,0.50
2024-02-19T14:12:34.412Z,0.50
2024-02-19T14:14:07.495Z,0.50
2024-02-19T14:15:40.764Z,0.50
2024-02-19T14:17:14.017Z,0.50
2024-02-19T14:18:47.795Z,0.50
2024-02-19T14:20:22.042Z,0.50
2024-02-19T14:21:54.942Z,0.50
2024-02-19T14:23:27.800Z,0.50
2024-02-19T14:25:00.549Z,0.50
2024-02-19T14:26:33.523Z,0.50
2024-02-19T14:28:10.991Z,0.50
2024-02-19T14:29:44.487Z,0.50
2024-02-19T14:31:18.142Z,0.50
2024-02-19T14:32:51.295Z,0.50
2024-02-19T14:34:26.340Z,0.50
2024-02-19T14:35:59.689Z,0.50
2024-02-19T14:37:39.187Z,0.50
2024-02-19T14:39:12.627Z,0.50
2024-02-19T14:40:45.410Z,0.50
2024-02-19T14:42:18.305Z,0.50
2024-02-19T14:43:50.971Z,0.50
2024-02-19T14:45:23.685Z,0.50
2024-02-19T14:47:02.430Z,0.50
2024-02-19T14:48:41.977Z,0.50
2024-02-19T14:50:15.603Z,0.50
2024-02-19T14:51:49.240Z,0.50
2024-02-19T14:53:22.203Z,0.50
2024-02-19T14:55:00.075Z,0.50
2024-02-19T14:56:33.827Z,0.50
2024-02-19T14:58:07.688Z,0.50
2024-02-19T14:59:41.826Z,0.50
2024-02-19T15:01:14.889Z,0.50
2024-02-19T15:02:49.045Z,0.50
2024-02-19T15:04:22.074Z,0.60
2024-02-19T15:05:55.094Z,0.50
2024-02-19T15:07:28.082Z,0.50
2024-02-19T15:09:00.937Z,0.50
2024-02-19T15:10:34.130Z,0.53
2024-02-19T15:12:07.302Z,0.50
2024-02-19T15:13:43.173Z,0.50
2024-02-19T15:15:16.395Z,0.50
2024-02-19T15:16:49.292Z,0.50
2024-02-19T15:18:24.514Z,0.50
2024-02-19T15:19:58.229Z,0.60
2024-02-19T15:21:35.941Z,0.50
2024-02-19T15:23:08.697Z,0.50
2024-02-19T15:24:41.981Z,0.50
2024-02-19T15:26:16.613Z,0.50
2024-02-19T15:27:50.062Z,0.40
2024-02-19T15:29:24.573Z,0.50
2024-02-19T15:30:57.365Z,0.50
2024-02-19T15:32:31.997Z,0.50
2024-02-19T15:34:05.086Z,0.50
2024-02-19T15:35:38.202Z,0.50
2024-02-19T15:37:11.667Z,0.50
2024-02-19T15:38:47.449Z,0.50
2024-02-19T15:40:21.712Z,0.50
2024-02-19T15:41:54.695Z,0.50
2024-02-19T15:43:27.884Z,0.50
2024-02-19T15:45:01.030Z,0.50
2024-02-19T15:46:34.311Z,0.50
2024-02-19T15:48:08.295Z,0.50
2024-02-19T15:49:41.990Z,0.53
2024-02-19T15:51:15.537Z,0.60
2024-02-19T15:52:55.659Z,0.50
2024-02-19T15:54:37.686Z,0.50
2024-02-19T15:56:10.775Z,0.50
2024-02-19T15:57:43.765Z,0.50
2024-02-19T15:59:17.830Z,0.50
2024-02-19T16:00:51.076Z,0.50
2024-02-19T16:02:24.005Z,0.50
2024-02-19T16:03:56.927Z,0.50
2024-02-19T16:05:29.873Z,0.50
2024-02-19T16:07:02.945Z,0.50
2024-02-19T16:08:35.883Z,0.50
2024-02-19T16:10:14.746Z,0.50
2024-02-19T16:11:51.649Z,0.50
2024-02-19T16:13:24.732Z,0.60
2024-02-19T16:14:57.640Z,0.50
2024-02-19T16:16:30.570Z,0.50
2024-02-19T16:18:04.777Z,0.50
2024-02-19T16:19:39.347Z,0.50
2024-02-19T16:21:12.863Z,0.50
2024-02-19T16:22:48.255Z,0.50
2024-02-19T16:24:20.946Z,0.50
2024-02-19T16:25:54.010Z,0.50
2024-02-19T16:27:26.951Z,0.50
2024-02-19T16:28:59.786Z,0.50
2024-02-19T16:30:33.167Z,0.50
2024-02-19T16:32:06.519Z,0.50
2024-02-19T16:33:43.297Z,0.50
2024-02-19T16:35:16.594Z,0.50
2024-02-19T16:36:49.400Z,0.60
2024-02-19T16:38:22.364Z,0.50
2024-02-19T16:39:55.337Z,0.50
2024-02-19T16:41:28.276Z,0.50
2024-02-19T16:43:01.894Z,0.50
2024-02-19T16:44:36.594Z,0.50
2024-02-19T16:46:10.069Z,0.50
2024-02-19T16:47:43.178Z,0.50
2024-02-19T16:49:16.067Z,0.50
2024-02-19T16:50:49.872Z,0.50
2024-02-19T16:52:22.734Z,0.50
2024-02-19T16:53:58.251Z,0.50
2024-02-19T16:55:33.053Z,0.50
2024-02-19T16:57:06.373Z,0.50
2024-02-19T16:58:39.522Z,0.50
2024-02-19T17:00:12.939Z,0.50
2024-02-19T17:01:47.181Z,0.50
2024-02-19T17:03:20.480Z,0.50
2024-02-19T17:04:53.313Z,0.50
2024-02-19T17:06:26.418Z,0.60
2024-02-19T17:08:00.118Z,0.50
2024-02-19T17:09:35.507Z,0.50
2024-02-19T17:11:08.756Z,0.60
2024-02-19T17:12:44.403Z,0.50
2024-02-19T17:14:18.184Z,0.50
2024-02-19T17:15:51.576Z,0.50
2024-02-19T17:17:24.651Z,0.50
2024-02-19T17:18:59.127Z,0.60
2024-02-19T17:20:33.645Z,0.50
2024-02-19T17:22:06.754Z,0.50
2024-02-19T17:23:44.448Z,0.50
2024-02-19T17:25:17.497Z,0.60
2024-02-19T17:26:50.488Z,0.50
2024-02-19T17:28:24.087Z,0.50
2024-02-19T17:29:57.061Z,0.50
2024-02-19T17:31:30.145Z,0.50
2024-02-19T17:33:03.066Z,0.50
2024-02-19T17:34:36.864Z,0.50
2024-02-19T17:36:10.271Z,0.50
2024-02-19T17:37:43.578Z,0.50
2024-02-19T17:39:16.355Z,0.50
2024-02-19T17:40:49.244Z,0.50
2024-02-19T17:42:22.970Z,0.60
2024-02-19T17:43:55.806Z,0.50
2024-02-19T17:45:28.807Z,0.50
2024-02-19T17:47:03.405Z,0.60
2024-02-19T17:48:38.437Z,0.50
2024-02-19T17:50:11.646Z,0.50
2024-02-19T17:51:44.603Z,0.50
2024-02-19T17:53:17.548Z,0.50
2024-02-19T17:54:54.005Z,0.50
2024-02-19T17:56:27.671Z,0.50
2024-02-19T17:58:00.631Z,0.50
2024-02-19T17:59:35.796Z,0.60
2024-02-19T18:01:08.611Z,0.50
2024-02-19T18:02:41.501Z,0.50
2024-02-19T18:04:14.441Z,0.60
2024-02-19T18:05:47.229Z,0.50
2024-02-19T18:07:20.105Z,0.50
2024-02-19T18:08:53.211Z,0.50
2024-02-19T18:10:25.894Z,0.60
2024-02-19T18:11:59.178Z,0.50
2024-02-19T18:13:33.124Z,0.50
2024-02-19T18:15:06.243Z,0.50
2024-02-19T18:16:41.770Z,0.50
2024-02-19T18:18:17.320Z,0.60
2024-02-19T18:19:52.134Z,0.53
2024-02-19T18:21:24.908Z,0.53
2024-02-19T18:24:31.559Z,0.50
2024-02-19T18:26:06.964Z,0.50
2024-02-19T18:27:40.395Z,0.60
2024-02-19T18:29:16.048Z,0.50
2024-02-19T18:30:48.747Z,0.50
2024-02-19T18:32:21.624Z,0.50
2024-02-19T18:33:54.592Z,0.50
2024-02-19T18:35:27.663Z,0.50
2024-02-19T18:37:00.658Z,0.60
2024-02-19T18:38:35.725Z,0.60
2024-02-19T18:40:10.121Z,0.60
2024-02-19T18:41:43.122Z,0.57
2024-02-19T18:43:15.772Z,0.50
2024-02-19T18:44:48.490Z,0.60
2024-02-19T18:46:21.532Z,0.50
2024-02-19T18:47:54.760Z,0.60
2024-02-19T18:49:32.265Z,0.60
2024-02-19T18:51:05.610Z,0.50
2024-02-19T18:52:39.522Z,0.53
2024-02-19T18:54:13.754Z,0.50
2024-02-19T18:55:59.575Z,0.60
2024-02-19T18:57:33.708Z,0.50
2024-02-19T18:59:06.541Z,0.60
2024-02-19T19:00:39.286Z,0.50
2024-02-19T19:02:12.100Z,0.50
2024-02-19T19:03:45.363Z,0.50
2024-02-19T19:05:18.200Z,0.50
2024-02-19T19:06:51.316Z,0.60
2024-02-19T19:08:24.959Z,0.50
2024-02-19T19:09:59.852Z,0.60
2024-02-19T19:11:36.673Z,0.50
2024-02-19T19:13:09.728Z,0.50
2024-02-19T19:14:43.750Z,0.60
2024-02-19T19:16:17.419Z,0.50
2024-02-19T19:17:50.934Z,0.50
2024-02-19T19:19:23.886Z,0.60
2024-02-19T19:20:56.591Z,0.50
2024-02-19T19:22:30.037Z,0.60
2024-02-19T19:24:03.884Z,0.60
2024-02-19T19:25:36.782Z,0.60
2024-02-19T19:27:09.692Z,0.60
2024-02-19T19:28:42.896Z,0.60
2024-02-19T19:30:15.811Z,0.60
2024-02-19T19:31:49.186Z,0.60
2024-02-19T19:33:21.959Z,0.60
2024-02-19T19:34:54.966Z,0.60
2024-02-19T19:36:27.872Z,0.50
2024-02-19T19:38:00.596Z,0.60
2024-02-19T19:39:33.803Z,0.50
2024-02-19T19:41:08.950Z,0.50
2024-02-19T19:42:59.317Z,0.50
2024-02-19T19:44:32.312Z,0.50
2024-02-19T19:46:05.351Z,0.50
2024-02-19T19:47:38.175Z,0.50
2024-02-19T19:49:11.467Z,0.60
2024-02-19T19:50:44.622Z,0.50
2024-02-19T19:52:17.971Z,0.50
2024-02-19T19:53:50.820Z,0.60
2024-02-19T19:55:23.803Z,0.50
2024-02-19T19:56:56.705Z,0.60
2024-02-19T19:58:32.616Z,0.60
2024-02-19T20:00:08.152Z,0.60
2024-02-19T20:01:40.873Z,0.50
2024-02-19T20:03:14.470Z,0.53
2024-02-19T20:04:53.160Z,0.50
2024-02-19T20:06:26.089Z,0.50
2024-02-19T20:07:58.870Z,0.50
2024-02-19T20:09:31.631Z,0.60
2024-02-19T20:11:04.745Z,0.50
2024-02-19T20:12:37.589Z,0.50
2024-02-19T20:14:10.289Z,0.50
2024-02-19T20:15:43.002Z,0.50
2024-02-19T20:17:20.938Z,0.50
2024-02-19T20:18:54.174Z,0.50
2024-02-19T20:20:30.399Z,0.60
2024-02-19T20:22:03.357Z,0.53
2024-02-19T20:23:41.105Z,0.50
2024-02-19T20:25:14.891Z,0.50
2024-02-19T20:26:48.028Z,0.57
2024-02-19T20:28:20.787Z,0.57
2024-02-19T20:29:53.970Z,0.50
2024-02-19T20:31:28.065Z,0.50
2024-02-19T20:33:01.585Z,0.50
2024-02-19T20:34:34.993Z,0.50
2024-02-19T20:36:08.160Z,0.60
2024-02-19T20:37:41.037Z,0.60
2024-02-19T20:39:15.579Z,0.50
2024-02-19T20:40:48.339Z,0.50
2024-02-19T20:42:21.139Z,0.60
2024-02-19T20:43:53.904Z,0.53
2024-02-19T20:45:26.767Z,0.50
2024-02-19T20:47:00.844Z,0.50
2024-02-19T20:48:33.841Z,0.60
2024-02-19T20:50:10.902Z,0.50
2024-02-19T20:51:44.154Z,0.50
2024-02-19T20:53:17.298Z,0.60
2024-02-19T20:54:53.549Z,0.60
2024-02-19T20:56:26.256Z,0.50
2024-02-19T20:57:59.162Z,0.50
2024-02-19T20:59:33.953Z,0.50
2024-02-19T21:01:06.854Z,0.60
2024-02-19T21:02:42.331Z,0.57
2024-02-19T21:04:15.979Z,0.50
2024-02-19T21:05:48.910Z,0.50
2024-02-19T21:07:23.576Z,0.60
2024-02-19T21:08:56.394Z,0.50
2024-02-19T21:10:29.174Z,0.50
2024-02-19T21:12:02.127Z,0.60
2024-02-19T21:13:35.873Z,0.50
2024-02-19T21:15:11.488Z,0.60
2024-02-19T21:16:45.307Z,0.57
2024-02-19T21:18:30.629Z,0.50